createdAt,value
2022-09-09T00:01:48.125Z,74.63
2022-09-09T00:06:57.036Z,74.50
2022-09-09T00:12:10.348Z,75.04
2022-09-09T00:17:37.329Z,74.67
2022-09-09T00:23:07.539Z,75.25
2022-09-09T00:28:24.634Z,75.05
2022-09-09T00:33:28.475Z,75.12
2022-09-09T00:38:56.635Z,75.67
2022-09-09T00:44:21.500Z,75.74
2022-09-09T00:49:50.897Z,75.50
2022-09-09T00:55:32.218Z,76.04
2022-09-09T01:01:10.157Z,75.94
2022-09-09T01:06:36.275Z,76.02
2022-09-09T01:12:02.281Z,76.32
2022-09-09T01:17:12.587Z,76.46
2022-09-09T01:22:32.199Z,76.63
2022-09-09T01:27:37.974Z,76.50
2022-09-09T01:32:46.950Z,76.40
2022-09-09T01:37:51.542Z,76.64
2022-09-09T01:42:56.429Z,76.53
2022-09-09T01:48:01.111Z,76.52
2022-09-09T01:53:34.096Z,76.87
2022-09-09T01:58:59.126Z,76.80
2022-09-09T02:04:09.149Z,76.95
2022-09-09T02:09:16.388Z,76.89
2022-09-09T02:14:29.102Z,76.98
2022-09-09T02:19:46.246Z,77.25
2022-09-09T02:25:01.304Z,77.34
2022-09-09T02:30:07.820Z,77.33
2022-09-09T02:35:27.367Z,77.52
2022-09-09T02:40:30.932Z,77.48
2022-09-09T02:45:53.211Z,77.22
2022-09-09T02:51:54.433Z,77.19
2022-09-09T02:57:09.497Z,77.56
2022-09-09T03:02:16.058Z,77.76
2022-09-09T03:07:23.372Z,77.86
2022-09-09T03:12:28.916Z,77.87
2022-09-09T03:17:32.530Z,78.16
2022-09-09T03:22:36.575Z,78.34
2022-09-09T03:27:40.142Z,78.18
2022-09-09T03:32:48.417Z,78.37
2022-09-09T03:37:52.769Z,78.52
2022-09-09T03:42:56.510Z,78.50
2022-09-09T03:48:03.003Z,78.58
2022-09-09T03:53:08.111Z,78.74
2022-09-09T03:58:11.520Z,78.68
2022-09-09T04:03:15.106Z,78.83
2022-09-09T04:08:20.201Z,79.10
2022-09-09T04:13:27.099Z,79.18
2022-09-09T04:18:33.564Z,78.71
2022-09-09T04:23:37.689Z,78.79
2022-09-09T04:28:42.460Z,78.75
2022-09-09T04:33:54.426Z,78.68
2022-09-09T04:38:59.487Z,78.46
2022-09-09T04:44:04.755Z,78.38
2022-09-09T04:49:14.452Z,77.78
2022-09-09T04:54:19.898Z,77.75
2022-09-09T04:59:24.793Z,77.65
2022-09-09T05:04:32.530Z,76.68
2022-09-09T05:09:36.043Z,75.12
2022-09-09T05:14:39.583Z,73.28
2022-09-09T05:19:45.213Z,72.57
2022-09-09T05:24:48.978Z,72.20
2022-09-09T05:29:52.702Z,72.25
2022-09-09T05:34:57.424Z,72.34
2022-09-09T05:40:03.233Z,72.23
2022-09-09T05:45:08.260Z,71.77
2022-09-09T05:50:11.989Z,71.86
2022-09-09T05:55:15.760Z,71.51
2022-09-09T06:00:19.715Z,70.87
2022-09-09T06:05:23.720Z,70.00
2022-09-09T06:10:27.353Z,69.96
2022-09-09T06:15:30.837Z,69.60
2022-09-09T06:20:34.080Z,69.25
2022-09-09T06:25:41.975Z,69.14
2022-09-09T06:30:49.813Z,69.01
2022-09-09T06:35:55.154Z,68.73
2022-09-09T06:41:00.456Z,68.00
2022-09-09T06:46:16.699Z,67.75
2022-09-09T06:51:24.062Z,67.69
2022-09-09T06:56:33.034Z,67.66
2022-09-09T07:01:42.296Z,67.75
2022-09-09T07:06:50.967Z,66.90
2022-09-09T07:11:58.605Z,66.61
2022-09-09T07:17:03.526Z,66.37
2022-09-09T07:22:13.100Z,65.94
2022-09-09T07:27:17.265Z,64.95
2022-09-09T07:32:21.617Z,64.23
2022-09-09T07:37:25.009Z,63.73
2022-09-09T07:42:30.019Z,63.25
2022-09-09T07:47:35.373Z,62.16
2022-09-09T07:52:42.242Z,61.77
2022-09-09T07:57:46.188Z,60.53
2022-09-09T08:02:51.895Z,59.31
2022-09-09T08:07:55.316Z,58.28
2022-09-09T08:13:15.242Z,56.79
2022-09-09T08:18:22.055Z,55.35
2022-09-09T08:23:25.606Z,53.63
2022-09-09T08:28:29.750Z,51.89
2022-09-09T08:33:33.820Z,50.62
2022-09-09T08:38:37.775Z,50.00
2022-09-09T08:43:44.779Z,49.88
2022-09-09T08:48:59.208Z,49.58
2022-09-09T08:54:05.975Z,48.83
2022-09-09T08:59:14.147Z,48.11
2022-09-09T09:04:35.187Z,47.82
2022-09-09T09:09:47.996Z,47.75
2022-09-09T09:14:51.824Z,47.65
2022-09-09T09:19:56.686Z,46.49
2022-09-09T09:25:03.342Z,46.50
2022-09-09T09:30:32.290Z,45.47
2022-09-09T09:35:43.216Z,45.38
2022-09-09T09:40:56.781Z,44.48
2022-09-09T09:46:16.839Z,45.12
2022-09-09T09:51:24.553Z,43.72
2022-09-09T09:56:29.914Z,43.51
2022-09-09T10:01:36.281Z,42.90
2022-09-09T10:06:44.693Z,43.49
2022-09-09T10:12:12.387Z,43.22
2022-09-09T10:17:31.002Z,43.30
2022-09-09T10:22:35.214Z,42.70
2022-09-09T10:27:38.799Z,42.38
2022-09-09T10:33:06.560Z,42.67
2022-09-09T10:38:22.007Z,42.81
2022-09-09T10:43:34.435Z,42.90
2022-09-09T10:48:56.431Z,42.68
2022-09-09T10:54:30.345Z,43.25
2022-09-09T10:59:48.308Z,43.42
2022-09-09T11:04:58.923Z,43.64
2022-09-09T11:10:08.594Z,43.68
2022-09-09T11:15:40.695Z,44.05
2022-09-09T11:20:45.951Z,44.23
2022-09-09T11:25:56.570Z,44.75
2022-09-09T11:31:23.283Z,45.21
2022-09-09T11:36:53.056Z,45.42
2022-09-09T11:42:09.444Z,45.80
2022-09-09T11:47:32.858Z,46.44
2022-09-09T11:52:42.299Z,46.30
2022-09-09T11:57:49.443Z,46.37
2022-09-09T12:02:52.998Z,46.87
2022-09-09T12:07:59.442Z,46.07
2022-09-09T12:13:10.215Z,46.69
2022-09-09T12:18:22.789Z,46.83
2022-09-09T12:23:36.635Z,46.66
2022-09-09T12:28:54.193Z,46.25
2022-09-09T12:34:24.383Z,46.82
2022-09-09T12:39:39.133Z,47.68
2022-09-09T12:45:01.734Z,48.02
2022-09-09T12:50:17.802Z,48.45
2022-09-09T12:55:28.854Z,49.21
2022-09-09T13:00:33.028Z,49.38
2022-09-09T13:05:39.144Z,49.28
2022-09-09T13:10:55.481Z,50.00
2022-09-09T13:16:02.849Z,50.63
2022-09-09T13:21:06.420Z,50.25
2022-09-09T13:26:27.622Z,50.47
2022-09-09T13:31:34.314Z,50.14
2022-09-09T13:36:37.780Z,50.79
2022-09-09T13:41:45.901Z,50.89
2022-09-09T13:47:01.737Z,51.17
2022-09-09T13:52:13.287Z,51.37
2022-09-09T13:57:25.435Z,51.68
2022-09-09T14:02:28.706Z,51.82
2022-09-09T14:07:32.227Z,51.76
2022-09-09T14:12:35.585Z,52.25
2022-09-09T14:17:38.836Z,52.34
2022-09-09T14:22:42.984Z,52.82
2022-09-09T14:27:46.388Z,53.22
2022-09-09T14:32:50.214Z,53.26
2022-09-09T14:37:53.722Z,53.69
2022-09-09T14:42:57.370Z,53.86
2022-09-09T14:48:00.890Z,54.10
2022-09-09T14:53:11.141Z,54.66
2022-09-09T14:58:14.367Z,54.59
2022-09-09T15:03:18.033Z,54.50
2022-09-09T15:08:21.403Z,54.67
2022-09-09T15:13:24.897Z,55.01
2022-09-09T15:18:28.212Z,55.40
2022-09-09T15:23:33.662Z,55.49
2022-09-09T15:28:39.365Z,55.50
2022-09-09T15:33:42.856Z,55.73
2022-09-09T15:38:47.305Z,56.12
2022-09-09T15:43:53.485Z,56.25
2022-09-09T15:49:18.657Z,56.43
2022-09-09T15:54:23.900Z,56.67
2022-09-09T15:59:30.947Z,56.93
2022-09-09T16:04:34.717Z,57.43
2022-09-09T16:09:38.036Z,57.52
2022-09-09T16:14:41.177Z,57.98
2022-09-09T16:19:44.431Z,58.32
2022-09-09T16:24:47.922Z,58.88
2022-09-09T16:29:51.607Z,58.68
2022-09-09T16:34:54.917Z,59.37
2022-09-09T16:39:58.317Z,59.08
2022-09-09T16:45:01.836Z,59.66
2022-09-09T16:50:06.523Z,59.63
2022-09-09T16:55:09.777Z,59.84
2022-09-09T17:00:13.665Z,59.99
2022-09-09T17:05:17.527Z,60.39
2022-09-09T17:10:21.257Z,60.30
2022-09-09T17:15:24.848Z,60.72
2022-09-09T17:20:33.699Z,60.43
2022-09-09T17:25:58.443Z,60.41
2022-09-09T17:31:03.105Z,60.93
2022-09-09T17:36:18.271Z,60.94
2022-09-09T17:41:24.627Z,60.83
2022-09-09T17:46:38.284Z,61.16
2022-09-09T17:51:43.615Z,61.47
2022-09-09T17:56:48.909Z,62.09
2022-09-09T18:01:52.512Z,62.13
2022-09-09T18:06:55.841Z,61.99
2022-09-09T18:11:59.534Z,62.19
2022-09-09T18:17:03.648Z,62.74
2022-09-09T18:22:07.338Z,62.65
2022-09-09T18:27:10.628Z,62.69
2022-09-09T18:32:13.897Z,63.16
2022-09-09T18:37:17.441Z,62.96
2022-09-09T18:42:20.747Z,63.30
2022-09-09T18:47:24.180Z,63.74
2022-09-09T18:52:27.558Z,63.39
2022-09-09T18:57:35.855Z,63.83
2022-09-09T19:02:39.915Z,64.09
2022-09-09T19:07:43.355Z,63.83
2022-09-09T19:12:48.087Z,63.72
2022-09-09T19:17:51.587Z,63.68
2022-09-09T19:22:56.257Z,63.81
2022-09-09T19:27:59.656Z,64.08
2022-09-09T19:33:04.389Z,64.31
2022-09-09T19:38:08.676Z,64.28
2022-09-09T19:43:12.518Z,64.12
2022-09-09T19:48:15.852Z,64.06
2022-09-09T19:53:22.430Z,64.27
2022-09-09T19:58:26.222Z,64.34
2022-09-09T20:03:29.857Z,64.55
2022-09-09T20:08:34.342Z,64.83
2022-09-09T20:13:40.783Z,64.54
2022-09-09T20:18:46.958Z,64.79
2022-09-09T20:23:51.875Z,64.93
2022-09-09T20:28:56.028Z,65.00
2022-09-09T20:33:59.395Z,65.38
2022-09-09T20:39:06.295Z,64.95
2022-09-09T20:44:15.995Z,64.81
2022-09-09T20:49:21.353Z,65.10
2022-09-09T20:54:26.814Z,65.25
2022-09-09T20:59:32.520Z,65.40
2022-09-09T21:04:36.240Z,65.35
2022-09-09T21:09:40.285Z,65.25
2022-09-09T21:14:44.070Z,65.30
2022-09-09T21:19:47.410Z,65.44
2022-09-09T21:24:50.995Z,65.73
2022-09-09T21:29:54.142Z,65.73
2022-09-09T21:34:57.441Z,65.48
2022-09-09T21:40:00.747Z,65.66
2022-09-09T21:45:06.638Z,65.98
2022-09-09T21:50:10.540Z,66.11
2022-09-09T21:55:14.379Z,66.04
2022-09-09T22:00:17.783Z,65.96
2022-09-09T22:05:21.068Z,66.04
2022-09-09T22:10:25.640Z,65.60
2022-09-09T22:15:29.602Z,65.70
2022-09-09T22:20:34.396Z,65.93
2022-09-09T22:25:39.206Z,65.83
2022-09-09T22:30:43.214Z,65.58
2022-09-09T22:35:46.617Z,65.31
2022-09-09T22:40:50.155Z,65.54
2022-09-09T22:45:53.784Z,65.27
2022-09-09T22:51:02.112Z,65.71
2022-09-09T22:56:07.993Z,65.59
2022-09-09T23:01:19.884Z,65.72
2022-09-09T23:06:25.889Z,65.90
2022-09-09T23:11:37.505Z,65.73
2022-09-09T23:16:45.316Z,65.89
2022-09-09T23:21:48.868Z,65.94
2022-09-09T23:26:52.527Z,66.00
2022-09-09T23:31:56.019Z,66.36
2022-09-09T23:36:59.517Z,66.30
2022-09-09T23:42:06.262Z,66.60
2022-09-09T23:47:10.000Z,66.86
2022-09-09T23:52:13.296Z,66.70
2022-09-09T23:57:16.516Z,67.34
